FD45 weather

Fort Walton Beach Medical Ctr Heliport
Fort Walton Beach, Florida, United States

Public forecast

Using degrees Fahrenheit for public forecast. Weather courtesy of forecast.io.

METAR (pilot weather report)

Closest report is Hurlburt Field, 3.2 nm (5.9 km) WSW. Retrieved 2017/12/15 15:56 UTC (38 minutes ago):

KHRT 151556Z 36009KT 10SM BKN110 11/06 A3013 RMK AO2A SLP205 P0000 T01110060 $

TAF (pilot weather forecast)

Forecast is more than 6 hours old.

Closest forecast is Hurlburt Field, 3.2 nm (5.9 km) WSW. Retrieved 2017/12/15 09:03 UTC (8 hours ago):

TAF KHRT 150900Z 1509/1615 VRB06KT 9999 BKN200 QNH3000INS BECMG 1514/1515 34012KT 9999 BKN100 QNH3009INS BECMG 1520/1521 35009KT 9999 BKN100 OVC150 QNH3013INS BECMG 1611/1612 03010KT 9999 SCT050 BKN250 QNH3022INS TX13/1515Z TN05/1609Z